Randolph C — WDI2573 — position and weather

sailwx.info

Track history (hours):
 
Tides and Currents Weather Stations Pressure Air Temp Water Temp Dewpoint Dewpoint Depression Visibility Wind Speed Wind Dir Waves Ship Positions

Randolph C

Owner: D&S Marine Service LLC, Houma, LA. More information available from US FCC via Universal Licensing System and Coast Guard Vessel Documentation Center.

Last reported at 2017-Dec-13 00:00 UTC. Time now 2017-Dec-17 17:45 UTC.
Position N 27°50' W 097°30'.

Length 114 m; draft 3 m.

Type: . MMSI: 367679550.

Date/timePositionNaut miles runAvg speedWind from/ knotsBaromVisibWave heightAir tempDewpointWater temp
2017-Dec-13 00:00N 27°50' W 097°30'0 0.0
2017-Dec-12 23:29N 27°50' W 097°30'13 1.6
2017-Dec-12 15:29N 27°49' W 097°15'3 5.9
2017-Dec-12 14:59N 27°49' W 097°12'3 5.3
2017-Dec-12 14:30N 27°50' W 097°09'3 5.3
2017-Dec-12 13:59N 27°50' W 097°06'2 4.7
2017-Dec-12 13:30N 27°51' W 097°04'3 5.9
2017-Dec-12 12:59N 27°54' W 097°03'3 5.7
2017-Dec-12 12:30N 27°56' W 097°04'3 4.9
2017-Dec-12 12:00N 27°59' W 097°03'2 5.0
2017-Dec-12 11:30N 28°01' W 097°01'14 4.5
2017-Dec-12 08:24N 28°11' W 096°51'2 4.0
2017-Dec-12 07:48N 28°13' W 096°49'1 4.2
2017-Dec-12 07:30N 28°14' W 096°48'11 4.4
2017-Dec-12 05:06N 28°20' W 096°38'115 3.2
2017-Dec-10 17:39N 29°23' W 094°49'1 4.1
2017-Dec-10 17:28N 29°23' W 094°49'6 5.7
2017-Dec-10 16:24N 29°29' W 094°52'2 5.6
2017-Dec-10 16:00N 29°31' W 094°53'3 5.8
2017-Dec-10 15:30N 29°33' W 094°55'3 5.7
2017-Dec-10 15:00N 29°36' W 094°57'3 5.7
2017-Dec-10 14:30N 29°38' W 094°58'3 6.0
2017-Dec-10 14:00N 29°41' W 094°59'3 5.5
2017-Dec-10 13:30N 29°43' W 095°01'3 5.5
2017-Dec-10 13:00N 29°45' W 095°04'2 3.5
2017-Dec-10 12:29N 29°46' W 095°05'1 1.3
2017-Dec-10 11:57N 29°47' W 095°04'0 0.0
2017-Dec-10 11:30N 29°47' W 095°04'0 0.6
2017-Dec-10 11:01N 29°47' W 095°04'1 1.1
2017-Dec-10 10:30N 29°47' W 095°05'1 2.9
2017-Dec-10 10:00N 29°46' W 095°05'1 2.0
2017-Dec-10 09:30N 29°45' W 095°06'0 0.0
2017-Dec-10 06:55N 29°45' W 095°06'0 0.0
2017-Dec-10 05:41N 29°45' W 095°06'0 0.0
2017-Dec-10 05:29N 29°45' W 095°06'0 0.0
2017-Dec-10 04:58N 29°45' W 095°06'0 0.0
2017-Dec-10 04:30N 29°45' W 095°06'0 0.0
2017-Dec-10 02:19N 29°45' W 095°06'1 0.1
2017-Dec-09 16:37N 29°45' W 095°06'1 5.9
2017-Dec-09 16:30N 29°46' W 095°05'2 1.3
2017-Dec-09 15:11N 29°47' W 095°04'0 0.0
2017-Dec-09 14:43N 29°47' W 095°04'0 0.4
2017-Dec-09 14:29N 29°47' W 095°04'1 3.0
2017-Dec-09 14:00N 29°46' W 095°05'1 2.9
2017-Dec-09 13:30N 29°45' W 095°06'0 0.0
2017-Dec-09 12:55N 29°45' W 095°06'0 0.1
2017-Dec-09 12:15N 29°45' W 095°06'0 0.0
2017-Dec-09 12:00N 29°45' W 095°06'0 0.0
2017-Dec-09 11:24N 29°45' W 095°06'0 0.0
2017-Dec-09 10:56N 29°45' W 095°06'0 0.0
2017-Dec-09 10:29N 29°45' W 095°06'0 0.0
2017-Dec-09 09:57N 29°45' W 095°06'0 0.0
2017-Dec-09 09:19N 29°45' W 095°06'0 0.0
2017-Dec-09 08:54N 29°45' W 095°06'0 0.0
2017-Dec-09 08:22N 29°45' W 095°06'0 0.0
2017-Dec-09 07:28N 29°45' W 095°06'0 0.0
2017-Dec-09 06:59N 29°45' W 095°06'0 0.0
2017-Dec-09 06:27N 29°45' W 095°06'0 0.0
2017-Dec-09 05:56N 29°45' W 095°06'0 0.0
2017-Dec-09 05:09N 29°45' W 095°06'0 0.0
2017-Dec-09 04:59N 29°45' W 095°06'0 0.0
2017-Dec-09 04:30N 29°45' W 095°06'0 0.0
2017-Dec-09 02:50N 29°45' W 095°06'0 0.0
2017-Dec-08 23:03N 29°45' W 095°06'0 0.2
2017-Dec-08 23:00N 29°45' W 095°06'1 0.2
2017-Dec-08 19:06N 29°45' W 095°06'0 5.7
2017-Dec-08 19:00N 29°46' W 095°05'2 0.6
2017-Dec-08 16:00N 29°47' W 095°04'2 3.1
2017-Dec-08 15:30N 29°46' W 095°05'1 0.8
2017-Dec-08 14:03N 29°46' W 095°06'0 5.2
2017-Dec-08 14:00N 29°46' W 095°06'1 0.3
2017-Dec-08 12:22N 29°46' W 095°06'2 4.2
2017-Dec-08 11:57N 29°47' W 095°04'0 0.1
2017-Dec-08 11:09N 29°47' W 095°04'0 0.0
2017-Dec-08 11:00N 29°47' W 095°04'0 0.0
2017-Dec-08 10:29N 29°47' W 095°04'0 0.2
2017-Dec-08 09:00N 29°47' W 095°04'1 1.2
2017-Dec-08 07:49N 29°46' W 095°05'2 5.5
2017-Dec-08 07:26N 29°44' W 095°07'3 6.8
2017-Dec-08 07:00N 29°45' W 095°10'3 6.6
2017-Dec-08 06:30N 29°44' W 095°14'1 1.8
2017-Dec-08 06:00N 29°43' W 095°15'0 0.0
2017-Dec-08 05:30N 29°43' W 095°15'0 0.0
2017-Dec-08 05:00N 29°43' W 095°15'0 0.0
2017-Dec-08 04:30N 29°43' W 095°15'0 0.0
2017-Dec-08 04:00N 29°43' W 095°15'0 0.0
2017-Dec-08 03:30N 29°43' W 095°15'0 0.0
2017-Dec-08 03:00N 29°43' W 095°15'2 4.1
2017-Dec-08 02:25N 29°44' W 095°12'2 4.5
2017-Dec-08 02:00N 29°45' W 095°10'2 4.2
2017-Dec-08 01:28N 29°44' W 095°08'0 0.1
2017-Dec-08 00:49N 29°44' W 095°08'1 3.4
2017-Dec-08 00:26N 29°45' W 095°06'1 0.5
2017-Dec-07 21:39N 29°46' W 095°05'0 0.0
2017-Dec-07 19:11N 29°46' W 095°05'1 1.0
2017-Dec-07 18:35N 29°46' W 095°05'1 1.7
2017-Dec-07 18:15N 29°46' W 095°05'1 2.3
2017-Dec-07 18:00N 29°45' W 095°06'0 0.0
2017-Dec-07 17:29N 29°45' W 095°06'0 0.1
2017-Dec-07 10:49N 29°46' W 095°06'1 3.9
2017-Dec-07 10:30N 29°45' W 095°06'3 5.6
2017-Dec-07 10:00N 29°44' W 095°09'3 5.1
2017-Dec-07 09:29N 29°44' W 095°12'2 4.2
2017-Dec-07 09:00N 29°43' W 095°15'0 0.0
2017-Dec-07 08:30N 29°43' W 095°15'1 1.3
2017-Dec-07 08:00N 29°43' W 095°14'2 3.5
2017-Dec-07 07:29N 29°44' W 095°12'1 3.0
2017-Dec-07 07:00N 29°45' W 095°11'2 3.6
2017-Dec-07 06:30N 29°44' W 095°09'2 4.3
2017-Dec-07 06:00N 29°45' W 095°06'1 2.8
2017-Dec-07 05:30N 29°46' W 095°05'0 0.0
2017-Dec-07 02:40N 29°46' W 095°05'1 5.1
2017-Dec-07 02:28N 29°46' W 095°04'2 4.9
2017-Dec-07 01:59N 29°44' W 095°02'1 1.8
2017-Dec-07 01:27N 29°44' W 095°01'2 3.8
2017-Dec-07 01:00N 29°44' W 095°03'2 0.7
2017-Dec-06 21:40N 29°46' W 095°05'2 5.2
2017-Dec-06 21:12N 29°44' W 095°07'1 6.1
2017-Dec-06 21:00N 29°44' W 095°08'  
2017-Dec-03 08:27N 29°18' W 094°49'0 0.2
2017-Dec-03 08:00N 29°18' W 094°49'0 0.1
2017-Dec-03 07:22N 29°18' W 094°49'0 0.1
2017-Dec-03 07:00N 29°18' W 094°49'0 0.1
2017-Dec-03 06:27N 29°18' W 094°49'0 0.0
2017-Dec-03 05:57N 29°18' W 094°49'0 0.0
2017-Dec-03 05:16N 29°18' W 094°49'0 0.0
2017-Dec-03 05:00N 29°18' W 094°49'0 0.0
2017-Dec-03 04:30N 29°18' W 094°49'0 0.0
2017-Dec-03 04:00N 29°18' W 094°49'0 0.0
2017-Dec-03 03:30N 29°18' W 094°49'0 0.0
2017-Dec-03 03:00N 29°18' W 094°49'0 0.0
2017-Dec-03 02:30N 29°18' W 094°49'0 0.0
2017-Dec-03 02:00N 29°18' W 094°49'0 0.0
2017-Dec-03 01:28N 29°18' W 094°49'0 0.1
2017-Dec-03 00:23N 29°18' W 094°49'  
Track history (hours):
 
Tides and Currents Weather Stations Pressure Air Temp Water Temp Dewpoint Dewpoint Depression Visibility Wind Speed Wind Dir Waves Ship Positions

Randolph C

Owner: D&S Marine Service LLC, Houma, LA. More information available from US FCC via Universal Licensing System and Coast Guard Vessel Documentation Center.

Last reported at 2017-Dec-13 00:00 UTC. Time now 2017-Dec-17 17:45 UTC.
Position N 27°50' W 097°30'.

Length 114 m; draft 3 m.

Type: . MMSI: 367679550.

Date/timePositionNaut miles runAvg speedWind from/ knotsBaromVisibWave heightAir tempDewpointWater temp
2017-Dec-13 00:00N 27°50' W 097°30'0 0.0
2017-Dec-12 23:29N 27°50' W 097°30'13 1.6
2017-Dec-12 15:29N 27°49' W 097°15'3 5.9
2017-Dec-12 14:59N 27°49' W 097°12'3 5.3
2017-Dec-12 14:30N 27°50' W 097°09'3 5.3
2017-Dec-12 13:59N 27°50' W 097°06'2 4.7
2017-Dec-12 13:30N 27°51' W 097°04'3 5.9
2017-Dec-12 12:59N 27°54' W 097°03'3 5.7
2017-Dec-12 12:30N 27°56' W 097°04'3 4.9
2017-Dec-12 12:00N 27°59' W 097°03'2 5.0
2017-Dec-12 11:30N 28°01' W 097°01'14 4.5
2017-Dec-12 08:24N 28°11' W 096°51'2 4.0
2017-Dec-12 07:48N 28°13' W 096°49'1 4.2
2017-Dec-12 07:30N 28°14' W 096°48'11 4.4
2017-Dec-12 05:06N 28°20' W 096°38'115 3.2
2017-Dec-10 17:39N 29°23' W 094°49'1 4.1
2017-Dec-10 17:28N 29°23' W 094°49'6 5.7
2017-Dec-10 16:24N 29°29' W 094°52'2 5.6
2017-Dec-10 16:00N 29°31' W 094°53'3 5.8
2017-Dec-10 15:30N 29°33' W 094°55'3 5.7
2017-Dec-10 15:00N 29°36' W 094°57'3 5.7
2017-Dec-10 14:30N 29°38' W 094°58'3 6.0
2017-Dec-10 14:00N 29°41' W 094°59'3 5.5
2017-Dec-10 13:30N 29°43' W 095°01'3 5.5
2017-Dec-10 13:00N 29°45' W 095°04'2 3.5
2017-Dec-10 12:29N 29°46' W 095°05'1 1.3
2017-Dec-10 11:57N 29°47' W 095°04'0 0.0
2017-Dec-10 11:30N 29°47' W 095°04'0 0.6
2017-Dec-10 11:01N 29°47' W 095°04'1 1.1
2017-Dec-10 10:30N 29°47' W 095°05'1 2.9
2017-Dec-10 10:00N 29°46' W 095°05'1 2.0
2017-Dec-10 09:30N 29°45' W 095°06'0 0.0
2017-Dec-10 06:55N 29°45' W 095°06'0 0.0
2017-Dec-10 05:41N 29°45' W 095°06'0 0.0
2017-Dec-10 05:29N 29°45' W 095°06'0 0.0
2017-Dec-10 04:58N 29°45' W 095°06'0 0.0
2017-Dec-10 04:30N 29°45' W 095°06'0 0.0
2017-Dec-10 02:19N 29°45' W 095°06'1 0.1
2017-Dec-09 16:37N 29°45' W 095°06'1 5.9
2017-Dec-09 16:30N 29°46' W 095°05'2 1.3
2017-Dec-09 15:11N 29°47' W 095°04'0 0.0
2017-Dec-09 14:43N 29°47' W 095°04'0 0.4
2017-Dec-09 14:29N 29°47' W 095°04'1 3.0
2017-Dec-09 14:00N 29°46' W 095°05'1 2.9
2017-Dec-09 13:30N 29°45' W 095°06'0 0.0
2017-Dec-09 12:55N 29°45' W 095°06'0 0.1
2017-Dec-09 12:15N 29°45' W 095°06'0 0.0
2017-Dec-09 12:00N 29°45' W 095°06'0 0.0
2017-Dec-09 11:24N 29°45' W 095°06'0 0.0
2017-Dec-09 10:56N 29°45' W 095°06'0 0.0
2017-Dec-09 10:29N 29°45' W 095°06'0 0.0
2017-Dec-09 09:57N 29°45' W 095°06'0 0.0
2017-Dec-09 09:19N 29°45' W 095°06'0 0.0
2017-Dec-09 08:54N 29°45' W 095°06'0 0.0
2017-Dec-09 08:22N 29°45' W 095°06'0 0.0
2017-Dec-09 07:28N 29°45' W 095°06'0 0.0
2017-Dec-09 06:59N 29°45' W 095°06'0 0.0
2017-Dec-09 06:27N 29°45' W 095°06'0 0.0
2017-Dec-09 05:56N 29°45' W 095°06'0 0.0
2017-Dec-09 05:09N 29°45' W 095°06'0 0.0
2017-Dec-09 04:59N 29°45' W 095°06'0 0.0
2017-Dec-09 04:30N 29°45' W 095°06'0 0.0
2017-Dec-09 02:50N 29°45' W 095°06'0 0.0
2017-Dec-08 23:03N 29°45' W 095°06'0 0.2
2017-Dec-08 23:00N 29°45' W 095°06'1 0.2
2017-Dec-08 19:06N 29°45' W 095°06'0 5.7
2017-Dec-08 19:00N 29°46' W 095°05'2 0.6
2017-Dec-08 16:00N 29°47' W 095°04'2 3.1
2017-Dec-08 15:30N 29°46' W 095°05'1 0.8
2017-Dec-08 14:03N 29°46' W 095°06'0 5.2
2017-Dec-08 14:00N 29°46' W 095°06'1 0.3
2017-Dec-08 12:22N 29°46' W 095°06'2 4.2
2017-Dec-08 11:57N 29°47' W 095°04'0 0.1
2017-Dec-08 11:09N 29°47' W 095°04'0 0.0
2017-Dec-08 11:00N 29°47' W 095°04'0 0.0
2017-Dec-08 10:29N 29°47' W 095°04'0 0.2
2017-Dec-08 09:00N 29°47' W 095°04'1 1.2
2017-Dec-08 07:49N 29°46' W 095°05'2 5.5
2017-Dec-08 07:26N 29°44' W 095°07'3 6.8
2017-Dec-08 07:00N 29°45' W 095°10'3 6.6
2017-Dec-08 06:30N 29°44' W 095°14'1 1.8
2017-Dec-08 06:00N 29°43' W 095°15'0 0.0
2017-Dec-08 05:30N 29°43' W 095°15'0 0.0
2017-Dec-08 05:00N 29°43' W 095°15'0 0.0
2017-Dec-08 04:30N 29°43' W 095°15'0 0.0
2017-Dec-08 04:00N 29°43' W 095°15'0 0.0
2017-Dec-08 03:30N 29°43' W 095°15'0 0.0
2017-Dec-08 03:00N 29°43' W 095°15'2 4.1
2017-Dec-08 02:25N 29°44' W 095°12'2 4.5
2017-Dec-08 02:00N 29°45' W 095°10'2 4.2
2017-Dec-08 01:28N 29°44' W 095°08'0 0.1
2017-Dec-08 00:49N 29°44' W 095°08'1 3.4
2017-Dec-08 00:26N 29°45' W 095°06'1 0.5
2017-Dec-07 21:39N 29°46' W 095°05'0 0.0
2017-Dec-07 19:11N 29°46' W 095°05'1 1.0
2017-Dec-07 18:35N 29°46' W 095°05'1 1.7
2017-Dec-07 18:15N 29°46' W 095°05'1 2.3
2017-Dec-07 18:00N 29°45' W 095°06'0 0.0
2017-Dec-07 17:29N 29°45' W 095°06'0 0.1
2017-Dec-07 10:49N 29°46' W 095°06'1 3.9
2017-Dec-07 10:30N 29°45' W 095°06'3 5.6
2017-Dec-07 10:00N 29°44' W 095°09'3 5.1
2017-Dec-07 09:29N 29°44' W 095°12'2 4.2
2017-Dec-07 09:00N 29°43' W 095°15'0 0.0
2017-Dec-07 08:30N 29°43' W 095°15'1 1.3
2017-Dec-07 08:00N 29°43' W 095°14'2 3.5
2017-Dec-07 07:29N 29°44' W 095°12'1 3.0
2017-Dec-07 07:00N 29°45' W 095°11'2 3.6
2017-Dec-07 06:30N 29°44' W 095°09'2 4.3
2017-Dec-07 06:00N 29°45' W 095°06'1 2.8
2017-Dec-07 05:30N 29°46' W 095°05'0 0.0
2017-Dec-07 02:40N 29°46' W 095°05'1 5.1
2017-Dec-07 02:28N 29°46' W 095°04'2 4.9
2017-Dec-07 01:59N 29°44' W 095°02'1 1.8
2017-Dec-07 01:27N 29°44' W 095°01'2 3.8
2017-Dec-07 01:00N 29°44' W 095°03'2 0.7
2017-Dec-06 21:40N 29°46' W 095°05'2 5.2
2017-Dec-06 21:12N 29°44' W 095°07'1 6.1
2017-Dec-06 21:00N 29°44' W 095°08'  
2017-Dec-03 08:27N 29°18' W 094°49'0 0.2
2017-Dec-03 08:00N 29°18' W 094°49'0 0.1
2017-Dec-03 07:22N 29°18' W 094°49'0 0.1
2017-Dec-03 07:00N 29°18' W 094°49'0 0.1
2017-Dec-03 06:27N 29°18' W 094°49'0 0.0
2017-Dec-03 05:57N 29°18' W 094°49'0 0.0
2017-Dec-03 05:16N 29°18' W 094°49'0 0.0
2017-Dec-03 05:00N 29°18' W 094°49'0 0.0
2017-Dec-03 04:30N 29°18' W 094°49'0 0.0
2017-Dec-03 04:00N 29°18' W 094°49'0 0.0
2017-Dec-03 03:30N 29°18' W 094°49'0 0.0
2017-Dec-03 03:00N 29°18' W 094°49'0 0.0
2017-Dec-03 02:30N 29°18' W 094°49'0 0.0
2017-Dec-03 02:00N 29°18' W 094°49'0 0.0
2017-Dec-03 01:28N 29°18' W 094°49'0 0.1
2017-Dec-03 00:23N 29°18' W 094°49'  

Dump ship's entire track history